LFRG/DOL METAR and TAF weather

Enter ICAO airport designator
Station Type Date Time Source
LFRG METAR 2020/08/07 12:30 UTC NOAA

LFRG 071230Z AUTO 14006KT 070V190 CAVOK 35/09 Q1018 NOSIG


Station Type Date Time Source
LFRG Decoded METAR 2020/08/07 12:30 UTC NOAA

Station name not available
Aug 07, 2020 - 08:30 AM EDT / 2020.08.07 1230 UTC
Wind: from the SE (140 degrees) at 7 MPH (6 KT) (direction variable):0
Visibility: greater than 7 mile(s):0
Temperature: 95 F (35 C)
Dew Point: 48 F (9 C)
Relative Humidity: 20%
Pressure (altimeter): 30.06 in. Hg (1018 hPa)
ob: LFRG 071230Z AUTO 14006KT 070V190 CAVOK 35/09 Q1018 NOSIG
cycle: 12

Station Type Date Time Source
LFRG TAF 2014/12/22 18:42 UTC NOAA

TAF
AMD TAF
AMD LFRG 221837Z 2218/2221 25015KT 9999 OVC015
TEMPO 2218/2221 BKN007 PROB30
TEMPO 2218/2221 25015G25KT 4000 DZ BKN003

Example: see airport list